createdAt,value
2019-01-11T00:01:24.230Z,23.02
2019-01-11T00:03:54.404Z,26.37
2019-01-11T00:06:24.256Z,22.27
2019-01-11T00:08:53.836Z,22.55
2019-01-11T00:11:23.404Z,24.15
2019-01-11T00:13:52.964Z,22.00
2019-01-11T00:16:22.856Z,30.17
2019-01-11T00:18:52.415Z,24.23
2019-01-11T00:21:22.245Z,23.90
2019-01-11T00:23:51.879Z,21.12
2019-01-11T00:26:21.473Z,24.30
2019-01-11T00:28:51.056Z,22.75
2019-01-11T00:31:21.451Z,24.35
2019-01-11T00:33:51.260Z,26.95
2019-01-11T00:36:20.834Z,23.15
2019-01-11T00:38:50.380Z,22.93
2019-01-11T00:41:20.242Z,25.92
2019-01-11T00:43:49.837Z,20.05
2019-01-11T00:46:19.645Z,22.65
2019-01-11T00:48:49.313Z,21.37
2019-01-11T00:51:18.880Z,25.17
2019-01-11T00:53:48.516Z,21.75
2019-01-11T00:56:18.110Z,25.00
2019-01-11T00:58:47.685Z,20.82
2019-01-11T01:01:17.227Z,22.05
2019-01-11T01:03:46.940Z,21.90
2019-01-11T01:06:16.488Z,19.20
2019-01-11T01:08:46.083Z,19.52
2019-01-11T01:11:15.671Z,22.25
2019-01-11T01:13:45.269Z,21.02
2019-01-11T01:16:15.458Z,19.92
2019-01-11T01:18:45.264Z,24.63
2019-01-11T01:21:14.900Z,24.90
2019-01-11T01:23:44.476Z,20.88
2019-01-11T01:26:14.060Z,22.67
2019-01-11T01:28:43.965Z,26.95
2019-01-11T01:31:13.485Z,24.65
2019-01-11T01:33:43.106Z,23.83
2019-01-11T01:36:12.670Z,24.52
2019-01-11T01:38:42.271Z,29.52
2019-01-11T01:41:12.143Z,29.95
2019-01-11T01:43:41.684Z,24.07
2019-01-11T01:46:11.623Z,27.98
2019-01-11T01:48:41.501Z,30.35
2019-01-11T01:51:11.059Z,32.05
2019-01-11T01:53:40.938Z,32.03
2019-01-11T01:56:10.790Z,30.52
2019-01-11T01:58:40.929Z,31.37
2019-01-11T02:01:10.702Z,30.50
2019-01-11T02:03:40.539Z,35.10
2019-01-11T02:06:10.056Z,29.77
2019-01-11T02:08:39.631Z,36.35
2019-01-11T02:11:09.221Z,36.10
2019-01-11T02:13:39.076Z,37.90
2019-01-11T02:16:08.963Z,33.38
2019-01-11T02:18:38.802Z,32.67
2019-01-11T02:21:08.643Z,34.15
2019-01-11T02:23:38.208Z,32.42
2019-01-11T02:26:08.100Z,37.03
2019-01-11T02:28:37.658Z,34.13
2019-01-11T02:31:07.569Z,37.75
2019-01-11T02:33:37.377Z,35.83
2019-01-11T02:36:07.224Z,29.27
2019-01-11T02:38:37.061Z,35.30
2019-01-11T02:41:07.171Z,41.15
2019-01-11T02:43:36.742Z,39.92
2019-01-11T02:46:06.836Z,38.50
2019-01-11T02:48:36.353Z,37.42
2019-01-11T02:51:06.515Z,43.48
2019-01-11T02:53:36.040Z,41.28
2019-01-11T02:56:05.882Z,41.83
2019-01-11T02:58:35.431Z,39.23
2019-01-11T03:01:05.107Z,38.13
2019-01-11T03:03:34.937Z,38.70
2019-01-11T03:06:04.765Z,35.15
2019-01-11T03:08:34.584Z,40.40
2019-01-11T03:11:04.490Z,42.25
2019-01-11T03:13:34.071Z,36.13
2019-01-11T03:16:03.640Z,38.00
2019-01-11T03:18:33.482Z,39.98
2019-01-11T03:21:03.325Z,41.20
2019-01-11T03:23:33.143Z,36.95
2019-01-11T03:26:02.993Z,38.30
2019-01-11T03:28:32.545Z,39.88
2019-01-11T03:31:09.096Z,46.00
2019-01-11T03:33:38.628Z,39.75
2019-01-11T03:36:08.717Z,43.95
2019-01-11T03:38:38.571Z,42.03
2019-01-11T03:41:08.772Z,40.40
2019-01-11T03:43:38.603Z,42.98
2019-01-11T03:46:08.491Z,41.77
2019-01-11T03:48:38.266Z,41.00
2019-01-11T03:51:08.398Z,43.30
2019-01-11T03:53:37.948Z,45.05
2019-01-11T03:56:08.335Z,47.10
2019-01-11T03:58:38.409Z,45.08
2019-01-11T04:01:08.009Z,43.35
2019-01-11T04:03:37.568Z,34.65
2019-01-11T04:06:07.748Z,41.15
2019-01-11T04:08:37.594Z,39.00
2019-01-11T04:11:07.175Z,38.10
2019-01-11T04:13:37.025Z,32.70
2019-01-11T04:16:06.570Z,36.13
2019-01-11T04:18:37.892Z,31.07
2019-01-11T04:21:07.685Z,33.95
2019-01-11T04:23:37.291Z,38.40
2019-01-11T04:26:07.153Z,37.00
2019-01-11T04:28:37.257Z,33.73
2019-01-11T04:31:06.805Z,28.80
2019-01-11T04:33:36.374Z,35.63
2019-01-11T04:36:05.933Z,30.12
2019-01-11T04:38:35.842Z,30.48
2019-01-11T04:41:06.095Z,31.27
2019-01-11T04:43:35.699Z,29.23
2019-01-11T04:46:05.278Z,28.60
2019-01-11T04:48:34.840Z,27.37
2019-01-11T04:51:04.526Z,31.90
2019-01-11T04:53:34.595Z,29.42
2019-01-11T04:56:04.264Z,28.10
2019-01-11T04:58:34.103Z,30.12
2019-01-11T05:01:03.666Z,30.08
2019-01-11T05:03:33.344Z,28.90
2019-01-11T05:06:02.920Z,29.72
2019-01-11T05:08:32.771Z,25.92
2019-01-11T05:11:02.375Z,29.57
2019-01-11T05:13:39.505Z,25.32
2019-01-11T05:16:09.293Z,27.35
2019-01-11T05:18:38.911Z,22.70
2019-01-11T05:21:08.704Z,20.72
2019-01-11T05:23:38.545Z,22.50
2019-01-11T05:26:08.137Z,22.20
2019-01-11T05:28:37.968Z,27.20
2019-01-11T05:31:07.776Z,24.70
2019-01-11T05:33:37.423Z,20.02
2019-01-11T05:36:07.001Z,21.25
2019-01-11T05:38:36.572Z,21.57
2019-01-11T05:41:06.180Z,17.05
2019-01-11T05:43:36.649Z,16.87
2019-01-11T05:46:06.216Z,16.23
2019-01-11T05:48:35.762Z,16.70
2019-01-11T05:51:05.308Z,16.60
2019-01-11T05:53:34.903Z,14.80
2019-01-11T05:56:09.293Z,16.90
2019-01-11T05:58:42.907Z,17.30
2019-01-11T06:01:13.795Z,15.68
2019-01-11T06:03:43.347Z,17.05
2019-01-11T06:06:13.206Z,16.23
2019-01-11T06:08:42.755Z,18.25
2019-01-11T06:11:12.335Z,17.62
2019-01-11T06:13:42.186Z,17.42
2019-01-11T06:16:12.030Z,16.55
2019-01-11T06:18:41.946Z,19.32
2019-01-11T06:21:11.532Z,19.95
2019-01-11T06:23:41.107Z,20.02
2019-01-11T06:26:11.043Z,19.82
2019-01-11T06:28:40.908Z,20.57
2019-01-11T06:31:10.768Z,21.23
2019-01-11T06:33:40.327Z,21.90
2019-01-11T06:36:09.907Z,21.20
2019-01-11T06:38:39.447Z,19.80
2019-01-11T06:41:09.597Z,21.60
2019-01-11T06:43:40.195Z,19.05
2019-01-11T06:46:09.803Z,21.68
2019-01-11T06:48:41.348Z,21.33
2019-01-11T06:51:11.026Z,21.07
2019-01-11T06:53:40.849Z,22.48
2019-01-11T06:56:10.954Z,25.72
2019-01-11T06:58:40.779Z,22.52
2019-01-11T07:01:10.644Z,26.12
2019-01-11T07:03:40.201Z,27.35
2019-01-11T07:06:09.780Z,23.20
2019-01-11T07:08:39.356Z,24.92
2019-01-11T07:11:09.191Z,22.17
2019-01-11T07:13:39.236Z,21.10
2019-01-11T07:16:09.115Z,21.05
2019-01-11T07:18:38.924Z,22.37
2019-01-11T07:21:08.490Z,26.30
2019-01-11T07:23:38.073Z,23.07
2019-01-11T07:26:07.896Z,26.60
2019-01-11T07:28:37.495Z,28.95
2019-01-11T07:31:19.441Z,27.37
2019-01-11T07:33:49.229Z,29.90
2019-01-11T07:36:28.151Z,30.85
2019-01-11T07:38:58.115Z,32.40
2019-01-11T07:41:27.911Z,27.20
2019-01-11T07:43:58.029Z,30.48
2019-01-11T07:46:27.592Z,28.77
2019-01-11T07:48:57.443Z,30.35
2019-01-11T07:51:26.973Z,25.60
2019-01-11T07:53:56.858Z,27.32
2019-01-11T07:56:26.380Z,29.30
2019-01-11T07:58:55.991Z,27.35
2019-01-11T08:01:26.726Z,23.75
2019-01-11T08:03:56.323Z,25.85
2019-01-11T08:06:25.903Z,24.30
2019-01-11T08:08:55.477Z,20.43
2019-01-11T08:11:25.280Z,27.22
2019-01-11T08:13:54.904Z,26.57
2019-01-11T08:16:24.449Z,23.75
2019-01-11T08:18:54.306Z,28.30
2019-01-11T08:21:24.132Z,31.73
2019-01-11T08:23:54.248Z,26.95
2019-01-11T08:26:23.811Z,25.02
2019-01-11T08:28:53.426Z,25.55
2019-01-11T08:31:22.961Z,27.70
2019-01-11T08:33:52.795Z,28.00
2019-01-11T08:36:22.603Z,28.70
2019-01-11T08:38:52.447Z,31.33
2019-01-11T08:41:23.258Z,26.73
2019-01-11T08:43:53.143Z,29.12
2019-01-11T08:46:22.991Z,29.50
2019-01-11T08:48:53.043Z,31.40
2019-01-11T08:51:22.854Z,35.50
2019-01-11T08:53:52.447Z,34.40
2019-01-11T08:56:22.020Z,34.48
2019-01-11T08:58:51.842Z,32.75
2019-01-11T09:01:21.401Z,33.78
2019-01-11T09:03:51.232Z,31.48
2019-01-11T09:06:20.915Z,30.12
2019-01-11T09:08:50.530Z,38.08
2019-01-11T09:11:20.085Z,36.70
2019-01-11T09:13:49.967Z,36.53
2019-01-11T09:16:20.800Z,34.70
2019-01-11T09:18:59.158Z,29.10
2019-01-11T09:21:29.226Z,38.35
2019-01-11T09:23:59.340Z,39.48
2019-01-11T09:26:28.908Z,43.42
2019-01-11T09:28:58.926Z,38.90
2019-01-11T09:31:28.789Z,43.80
2019-01-11T09:33:58.312Z,44.20
2019-01-11T09:36:27.942Z,43.48
2019-01-11T09:38:57.763Z,55.85
2019-01-11T09:41:27.387Z,38.50
2019-01-11T09:43:56.966Z,46.58
2019-01-11T09:46:26.557Z,46.77
2019-01-11T09:48:56.390Z,49.08
2019-01-11T09:51:26.439Z,55.73
2019-01-11T09:53:56.031Z,58.45
2019-01-11T09:56:25.911Z,39.03
2019-01-11T09:58:55.452Z,58.28
2019-01-11T10:01:25.380Z,48.48
2019-01-11T10:03:55.187Z,43.30
2019-01-11T10:06:24.995Z,45.95
2019-01-11T10:08:54.574Z,50.63
2019-01-11T10:11:24.396Z,40.12
2019-01-11T10:13:54.254Z,39.30
2019-01-11T10:16:23.887Z,46.75
2019-01-11T10:18:53.462Z,59.03
2019-01-11T10:21:24.015Z,46.85
2019-01-11T10:23:54.162Z,44.60
2019-01-11T10:26:23.990Z,41.55
2019-01-11T10:28:53.922Z,61.23
2019-01-11T10:31:23.875Z,47.78
2019-01-11T10:33:54.232Z,61.98
2019-01-11T10:36:23.789Z,48.68
2019-01-11T10:38:53.368Z,52.33
2019-01-11T10:41:23.193Z,46.73
2019-01-11T10:43:53.361Z,51.35
2019-01-11T10:46:35.822Z,43.63
2019-01-11T10:49:05.365Z,61.08
2019-01-11T10:51:35.224Z,50.70
2019-01-11T10:54:05.564Z,63.25
2019-01-11T10:56:35.366Z,44.65
2019-01-11T10:59:07.223Z,47.88
2019-01-11T11:01:36.812Z,46.42
2019-01-11T11:04:06.794Z,44.42
2019-01-11T11:06:36.471Z,46.05
2019-01-11T11:09:08.221Z,46.33
2019-01-11T11:11:37.789Z,45.12
2019-01-11T11:14:07.648Z,37.42
2019-01-11T11:16:37.469Z,43.05
2019-01-11T11:19:07.058Z,42.95
2019-01-11T11:21:36.888Z,48.15
2019-01-11T11:24:06.465Z,42.38
2019-01-11T11:26:36.058Z,33.25
2019-01-11T11:29:06.478Z,47.85
2019-01-11T11:31:36.316Z,52.78
2019-01-11T11:34:05.933Z,54.20
2019-01-11T11:36:35.452Z,41.48
2019-01-11T11:39:12.072Z,53.25
2019-01-11T11:41:41.624Z,52.58
2019-01-11T11:44:11.586Z,56.40
2019-01-11T11:46:41.209Z,51.08
2019-01-11T11:49:11.063Z,46.10
2019-01-11T11:51:41.450Z,53.42
2019-01-11T11:54:11.557Z,51.13
2019-01-11T11:56:41.399Z,51.10
2019-01-11T11:59:11.537Z,45.28
2019-01-11T12:01:41.324Z,54.13
2019-01-11T12:04:10.935Z,55.38
2019-01-11T12:06:40.500Z,52.45
2019-01-11T12:09:10.875Z,43.40
2019-01-11T12:11:40.476Z,49.10
2019-01-11T12:14:10.042Z,57.08
2019-01-11T12:16:39.614Z,47.95
2019-01-11T12:19:09.474Z,54.35
2019-01-11T12:21:39.052Z,49.38
2019-01-11T12:24:08.681Z,45.85
2019-01-11T12:26:38.241Z,51.30
2019-01-11T12:29:08.198Z,43.65
2019-01-11T12:31:37.778Z,48.48
2019-01-11T12:34:07.593Z,46.33
2019-01-11T12:36:37.175Z,44.25
2019-01-11T12:39:08.720Z,39.38
2019-01-11T12:41:38.532Z,38.48
2019-01-11T12:44:08.182Z,35.23
2019-01-11T12:46:38.061Z,39.30
2019-01-11T12:49:07.609Z,37.70
2019-01-11T12:51:37.700Z,37.28
2019-01-11T12:54:07.355Z,35.38
2019-01-11T12:56:36.915Z,42.08
2019-01-11T12:59:06.532Z,33.35
2019-01-11T13:01:36.096Z,34.38
2019-01-11T13:04:06.067Z,41.92
2019-01-11T13:06:35.907Z,38.48
2019-01-11T13:09:08.225Z,39.90
2019-01-11T13:11:38.467Z,39.23
2019-01-11T13:14:08.455Z,31.55
2019-01-11T13:16:37.992Z,27.98
2019-01-11T13:19:08.185Z,33.55
2019-01-11T13:21:37.861Z,32.35
2019-01-11T13:24:07.821Z,34.70
2019-01-11T13:26:37.795Z,39.13
2019-01-11T13:29:07.857Z,39.80
2019-01-11T13:31:37.772Z,33.90
2019-01-11T13:34:07.597Z,31.23
2019-01-11T13:36:37.183Z,37.80
2019-01-11T13:39:11.910Z,28.85
2019-01-11T13:41:41.590Z,26.27
2019-01-11T13:44:11.483Z,32.67
2019-01-11T13:46:41.638Z,31.65
2019-01-11T13:49:11.271Z,38.30
2019-01-11T13:51:40.998Z,31.75
2019-01-11T13:54:10.636Z,34.78
2019-01-11T13:56:40.489Z,29.00
2019-01-11T13:59:10.075Z,36.48
2019-01-11T14:01:39.981Z,30.45
2019-01-11T14:04:09.770Z,31.48
2019-01-11T14:06:39.359Z,31.90
2019-01-11T14:09:09.646Z,39.58
2019-01-11T14:11:39.266Z,31.27
2019-01-11T14:14:08.813Z,37.38
2019-01-11T14:16:38.402Z,37.58
2019-01-11T14:19:07.960Z,34.88
2019-01-11T14:21:37.542Z,32.93
2019-01-11T14:24:07.462Z,41.63
2019-01-11T14:26:37.578Z,32.67
2019-01-11T14:29:07.374Z,36.40
2019-01-11T14:31:36.993Z,37.08
2019-01-11T14:34:06.618Z,30.95
2019-01-11T14:36:36.199Z,26.48
2019-01-11T14:39:08.691Z,23.87
2019-01-11T14:41:38.402Z,26.50
2019-01-11T14:44:07.977Z,27.85
2019-01-11T14:46:37.760Z,26.90
2019-01-11T14:49:07.620Z,26.05
2019-01-11T14:51:37.281Z,21.30
2019-01-11T14:54:06.883Z,25.10
2019-01-11T14:56:36.464Z,23.60
2019-01-11T14:59:06.055Z,21.07
2019-01-11T15:01:35.629Z,28.47
2019-01-11T15:04:05.527Z,22.45
2019-01-11T15:06:35.118Z,24.75
2019-01-11T15:09:07.713Z,25.37
2019-01-11T15:11:37.320Z,19.40
2019-01-11T15:14:06.836Z,27.60
2019-01-11T15:16:36.420Z,20.10
2019-01-11T15:19:06.017Z,18.98
2019-01-11T15:21:35.808Z,22.87
2019-01-11T15:24:06.067Z,25.32
2019-01-11T15:26:35.914Z,21.33
2019-01-11T15:29:05.512Z,27.37
2019-01-11T15:31:35.335Z,21.68
2019-01-11T15:34:04.901Z,22.20
2019-01-11T15:36:34.995Z,15.23
2019-01-11T15:39:06.886Z,20.37
2019-01-11T15:41:36.715Z,19.82
2019-01-11T15:44:06.304Z,17.92
2019-01-11T15:46:36.681Z,21.30
2019-01-11T15:49:06.269Z,16.75
2019-01-11T15:51:35.831Z,17.27
2019-01-11T15:54:06.151Z,20.17
2019-01-11T15:56:35.959Z,15.28
2019-01-11T15:59:05.914Z,19.65
2019-01-11T16:01:35.695Z,14.63
2019-01-11T16:04:09.108Z,16.57
2019-01-11T16:06:40.534Z,15.15
2019-01-11T16:10:00.896Z,15.23
2019-01-11T16:12:54.480Z,15.10
2019-01-11T16:15:55.206Z,17.85
2019-01-11T16:18:30.308Z,16.97
2019-01-11T16:21:00.013Z,14.33
2019-01-11T16:23:29.585Z,16.12
2019-01-11T16:25:59.420Z,14.05
2019-01-11T16:28:28.936Z,13.30
2019-01-11T16:30:58.525Z,16.15
2019-01-11T16:33:28.739Z,13.65
2019-01-11T16:35:58.307Z,17.30
2019-01-11T16:38:28.144Z,12.05
2019-01-11T16:40:58.081Z,11.65
2019-01-11T16:43:27.911Z,10.55
2019-01-11T16:45:57.799Z,11.22
2019-01-11T16:48:27.348Z,14.13
2019-01-11T16:50:56.926Z,12.85
2019-01-11T16:53:26.466Z,13.45
2019-01-11T16:55:56.342Z,11.50
2019-01-11T16:58:26.174Z,9.20
2019-01-11T17:00:55.980Z,12.45
2019-01-11T17:03:25.838Z,12.63
2019-01-11T17:05:55.957Z,9.78
2019-01-11T17:08:25.509Z,10.10
2019-01-11T17:10:55.333Z,13.38
2019-01-11T17:13:24.918Z,11.20
2019-01-11T17:15:54.498Z,11.55
2019-01-11T17:18:24.602Z,10.43
2019-01-11T17:20:54.431Z,8.80
2019-01-11T17:23:24.304Z,10.18
2019-01-11T17:25:53.875Z,12.40
2019-01-11T17:28:23.434Z,11.45
2019-01-11T17:30:53.017Z,10.60
2019-01-11T17:33:22.563Z,9.25
2019-01-11T17:35:52.166Z,12.20
2019-01-11T17:38:22.807Z,11.73
2019-01-11T17:40:52.643Z,11.15
2019-01-11T17:43:22.170Z,11.95
2019-01-11T17:45:51.972Z,10.72
2019-01-11T17:48:21.511Z,8.43
2019-01-11T17:50:51.448Z,9.65
2019-01-11T17:53:20.957Z,11.95
2019-01-11T17:55:50.829Z,12.00
2019-01-11T17:58:20.387Z,10.70
2019-01-11T18:00:50.211Z,7.55
2019-01-11T18:03:20.288Z,10.55
2019-01-11T18:05:50.131Z,6.65
2019-01-11T18:08:19.939Z,9.08
2019-01-11T18:10:49.746Z,7.30
2019-01-11T18:13:19.585Z,9.60
2019-01-11T18:15:49.395Z,9.75
2019-01-11T18:18:18.987Z,7.80
2019-01-11T18:20:48.721Z,9.83
2019-01-11T18:23:18.595Z,15.10
2019-01-11T18:25:48.128Z,14.05
2019-01-11T18:28:17.713Z,21.33
2019-01-11T18:30:47.826Z,19.90
2019-01-11T18:33:17.710Z,13.98
2019-01-11T18:35:47.520Z,15.40
2019-01-11T18:38:17.105Z,14.25
2019-01-11T18:40:47.226Z,9.15
2019-01-11T18:43:16.808Z,12.75
2019-01-11T18:45:46.624Z,12.85
2019-01-11T18:48:16.470Z,9.60
2019-01-11T18:50:46.014Z,13.28
2019-01-11T18:53:15.600Z,10.72
2019-01-11T18:55:45.123Z,9.73
2019-01-11T18:58:15.299Z,9.68
2019-01-11T19:00:44.863Z,13.00
2019-01-11T19:03:14.416Z,13.10
2019-01-11T19:05:44.269Z,11.63
2019-01-11T19:08:14.091Z,9.70
2019-01-11T19:10:43.670Z,12.85
2019-01-11T19:13:13.240Z,7.72
2019-01-11T19:15:42.807Z,10.78
2019-01-11T19:18:12.353Z,9.45
2019-01-11T19:20:42.474Z,11.40
2019-01-11T19:23:12.325Z,9.93
2019-01-11T19:25:42.282Z,11.30
2019-01-11T19:28:12.675Z,13.28
2019-01-11T19:30:42.238Z,13.72
2019-01-11T19:33:11.819Z,12.07
2019-01-11T19:35:41.692Z,12.85
2019-01-11T19:38:11.599Z,10.48
2019-01-11T19:40:41.743Z,13.43
2019-01-11T19:43:11.310Z,13.38
2019-01-11T19:45:40.855Z,14.60
2019-01-11T19:48:10.953Z,9.35
2019-01-11T19:50:40.791Z,14.03
2019-01-11T19:53:10.668Z,13.80
2019-01-11T19:55:40.547Z,16.82
2019-01-11T19:58:10.405Z,12.70
2019-01-11T20:00:39.958Z,11.80
2019-01-11T20:03:10.021Z,13.55
2019-01-11T20:05:39.996Z,10.80
2019-01-11T20:08:09.587Z,11.43
2019-01-11T20:10:39.322Z,12.55
2019-01-11T20:13:08.845Z,17.32
2019-01-11T20:15:38.686Z,8.78
2019-01-11T20:18:08.399Z,15.45
2019-01-11T20:20:38.588Z,13.90
2019-01-11T20:23:09.907Z,14.73
2019-01-11T20:25:39.627Z,10.63
2019-01-11T20:28:09.434Z,14.83
2019-01-11T20:30:39.512Z,13.85
2019-01-11T20:33:09.081Z,12.58
2019-01-11T20:35:38.647Z,10.58
2019-01-11T20:38:08.709Z,10.78
2019-01-11T20:40:38.293Z,12.70
2019-01-11T20:43:07.844Z,12.45
2019-01-11T20:45:37.415Z,13.35
2019-01-11T20:48:07.043Z,15.13
2019-01-11T20:50:36.640Z,12.85
2019-01-11T20:53:06.579Z,9.75
2019-01-11T20:55:36.638Z,10.20
2019-01-11T20:58:06.556Z,11.05
2019-01-11T21:00:36.710Z,11.45
2019-01-11T21:03:08.172Z,15.13
2019-01-11T21:05:38.120Z,11.50
2019-01-11T21:08:07.799Z,12.70
2019-01-11T21:10:37.458Z,12.68
2019-01-11T21:13:07.263Z,11.70
2019-01-11T21:15:37.158Z,9.65
2019-01-11T21:18:07.108Z,12.68
2019-01-11T21:20:36.676Z,11.28
2019-01-11T21:23:06.635Z,12.13
2019-01-11T21:25:36.443Z,12.07
2019-01-11T21:28:06.246Z,10.08
2019-01-11T21:30:36.088Z,8.20
2019-01-11T21:33:05.983Z,17.40
2019-01-11T21:35:35.979Z,10.15
2019-01-11T21:38:05.529Z,8.88
2019-01-11T21:40:35.157Z,14.30
2019-01-11T21:43:04.777Z,12.70
2019-01-11T21:45:34.762Z,14.83
2019-01-11T21:48:04.293Z,8.20
2019-01-11T21:50:33.906Z,14.20
2019-01-11T21:53:03.438Z,12.85
2019-01-11T21:55:33.557Z,11.55
2019-01-11T21:58:03.475Z,17.77
2019-01-11T22:00:36.192Z,11.15
2019-01-11T22:03:07.142Z,11.25
2019-01-11T22:05:36.691Z,7.75
2019-01-11T22:08:06.385Z,11.73
2019-01-11T22:10:36.267Z,9.10
2019-01-11T22:13:06.117Z,12.40
2019-01-11T22:15:35.939Z,14.18
2019-01-11T22:18:06.295Z,8.90
2019-01-11T22:20:36.115Z,8.30
2019-01-11T22:23:05.990Z,9.35
2019-01-11T22:25:35.520Z,10.23
2019-01-11T22:28:05.105Z,12.80
2019-01-11T22:30:34.953Z,11.30
2019-01-11T22:33:04.540Z,12.03
2019-01-11T22:35:34.147Z,11.63
2019-01-11T22:38:03.768Z,14.13
2019-01-11T22:40:33.315Z,11.00
2019-01-11T22:43:03.183Z,23.00
2019-01-11T22:45:32.714Z,14.60
2019-01-11T22:48:02.284Z,9.25
2019-01-11T22:50:32.111Z,13.50
2019-01-11T22:53:01.676Z,13.22
2019-01-11T22:55:31.534Z,10.35
2019-01-11T22:58:01.367Z,12.58
2019-01-11T23:00:57.146Z,12.13
2019-01-11T23:03:40.300Z,7.60
2019-01-11T23:07:02.984Z,13.58
2019-01-11T23:09:43.393Z,8.10
2019-01-11T23:12:45.934Z,11.60
2019-01-11T23:15:22.666Z,10.72
2019-01-11T23:17:55.953Z,10.30
2019-01-11T23:20:26.020Z,9.75
2019-01-11T23:22:55.875Z,7.35
2019-01-11T23:25:25.733Z,17.35
2019-01-11T23:27:55.354Z,15.38
2019-01-11T23:30:25.274Z,7.95
2019-01-11T23:32:54.846Z,12.85
2019-01-11T23:35:24.447Z,12.37
2019-01-11T23:37:54.000Z,8.95
2019-01-11T23:40:23.858Z,7.75
2019-01-11T23:42:53.703Z,14.83
2019-01-11T23:45:23.313Z,12.80
2019-01-11T23:47:52.855Z,6.10
2019-01-11T23:50:22.688Z,6.05
2019-01-11T23:52:52.248Z,7.65
2019-01-11T23:55:21.854Z,8.08
2019-01-11T23:57:51.380Z,8.90
